Latest Coastal Weather Observations for Tasman Island

IDT60701

Issued at 11:55 pm EDT Saturday 25 October 2014 (issued every 10 minutes, with the page automatically refreshed every 10 minutes)

About coastal observations | Map of coastal stations | Coastal observations for TAS | Marine services | Other Formats
Station Details ID: 094155 Name: TASMAN ISLAND Lat: -43.24 Lon: 148.00 Height: 240.0 m
Data from the previous 72 hours. | See also: Recent months at Tasman Island
Date/Time
EDT
Temp

°C
Wind Pressure Rain
since 9am
mm
Weather Cloud Vis
km
Sea
Height
m
Swell
Dir
 
Speed
knots
Gust
knots
hPa Trend Height
m
Period
s
Dir
25/11:30pm 9.0 SSW 2 7 1018.0 - 0.2 - - - - - - -
25/11:00pm 9.0 SE 3 7 1017.7 - 0.2 - - - - - - -
25/10:30pm 8.9 SSE 3 6 1018.0 - 0.2 - - - - - - -
25/10:00pm 9.0 S 2 6 1018.2 - 0.2 - - - - - - -
25/09:30pm 8.9 SSE 3 7 1018.3 - 0.2 - - - - - - -
25/09:00pm 9.0 SSE 5 10 1018.0 - 0.2 - - - - - - -
25/08:30pm 9.0 SSE 6 9 1018.2 - 0.2 - - - - - - -
25/08:00pm 8.9 S 6 9 1017.9 - 0.2 - - - - - - -
25/07:30pm 9.0 S 7 11 1017.9 - 0.2 - - - - - - -
25/07:00pm 9.2 S 7 11 1017.5 - 0.2 - - - - - - -
25/06:30pm 9.5 S 6 9 1017.5 - 0.2 - - - - - - -
25/06:00pm 9.6 S 6 10 1017.3 - 0.2 - - - - - - -
25/05:30pm 10.2 S 7 12 1016.8 - 0.2 - - - - - - -
25/05:00pm 10.8 SSW 9 14 1016.9 - 0.2 - - - - - - -
25/04:30pm 11.5 SSW 10 14 1016.5 - 0.2 - - - - - - -
25/04:00pm 11.5 SSW 10 16 1016.9 - 0.2 - - - - - - -
25/03:30pm 11.6 SSW 11 17 1016.9 - 0.2 - - - - - - -
25/03:00pm 11.6 SSW 16 23 1016.4 - 0.2 Recent precip. - - - - - -
25/02:30pm 11.8 SSW 13 20 1016.7 - 0.2 - - - - - - -
25/02:00pm 12.1 SSW 14 23 1016.5 - 0.0 - - - - - - -
25/01:30pm 11.6 SSW 16 24 1016.3 - 0.0 - - - - - - -
25/01:17pm 11.0 SSW 19 29 1016.1 - 0.0 - - - - - - -
25/01:00pm 11.5 SSW 17 24 1015.9 - 0.0 - - - - - - -
25/12:30pm 11.2 SW 23 34 1015.8 - 0.0 - - - - - - -
25/12:00pm 11.8 SW 24 34 1015.3 - 0.0 - - - - - - -
25/11:36am 11.6 SW 26 36 1015.0 - 0.0 - - - - - - -
25/11:30am 11.3 SW 27 36 1014.9 - 0.0 - - - - - - -
25/11:00am 11.1 SW 22 34 1015.1 - 0.0 - - - - - - -
25/10:30am 11.2 SW 19 31 1015.7 - 0.0 - - - - - - -
25/10:07am 11.2 SW 22 33 1015.2 - 0.0 - - - - - - -
25/10:00am 11.2 SW 23 31 1014.9 - 0.0 - - - - - - -
25/09:30am 11.4 SW 20 33 1014.8 - 0.0 - - - - - - -
25/09:00am 11.4 SW 21 32 1014.8 - 0.2 - - - - - - -
25/08:30am 11.3 SW 24 37 1014.0 - 0.2 - - - - - - -
25/08:06am 11.0 SW 28 38 1013.3 - 0.2 - - - - - - -
25/08:00am 10.9 SW 28 36 1013.4 - 0.2 - - - - - - -
25/07:37am 11.3 SW 19 29 1013.8 - 0.2 - - - - - - -
25/07:30am 11.1 SW 19 27 1013.7 - 0.2 - - - - - - -
25/07:02am 10.7 SSW 16 29 1012.9 - 0.2 - - - - - - -
25/07:00am 10.8 SSW 15 25 1012.9 - 0.2 - - - - - - -
25/06:37am 10.5 SW 20 30 1012.6 - 0.2 - - - - - - -
25/06:30am 10.9 SW 23 30 1012.4 - 0.2 - - - - - - -
25/06:01am 10.5 SW 28 39 1011.4 - 0.2 - - - - - - -
25/06:00am 10.6 SW 29 39 1011.3 - 0.2 - - - - - - -
25/05:30am 11.0 SW 17 32 1010.6 - 0.2 - - - - - - -
25/05:19am 11.1 SW 15 33 1010.4 - 0.2 - - - - - - -
25/05:00am 11.2 SW 11 19 1010.9 - 0.2 - - - - - - -
25/04:30am 11.3 SW 24 34 1010.4 - 0.2 - - - - - - -
25/04:17am 11.3 SW 23 39 1009.9 - 0.2 - - - - - - -
25/04:00am 11.3 SW 17 29 1009.8 - 0.2 - - - - - - -
25/03:51am 11.4 SW 15 25 1009.7 - 0.2 - - - - - - -
25/03:30am 11.5 SW 13 24 1009.6 - 0.2 - - - - - - -
25/03:00am 11.7 SW 21 35 1009.2 - 0.2 - - - - - - -
25/02:33am 11.7 SW 16 28 1008.7 - 0.2 - - - - - - -
25/02:30am 11.7 SW 16 26 1008.7 - 0.2 - - - - - - -
25/02:16am 11.6 SW 15 25 1008.4 - 0.2 - - - - - - -
25/02:00am 11.6 SW 11 22 1008.7 - 0.2 - - - - - - -
25/01:30am 11.7 SW 9 22 1008.4 - 0.2 - - - - - - -
25/01:00am 11.9 WSW 9 17 1009.0 - 0.2 - - - - - - -
25/12:30am 12.3 SW 15 21 1008.9 - 0.2 - - - - - - -
25/12:00am 12.9 SW 19 27 1009.2 - 0.2 - - - - - - -
 
Date/Time
EDT
Temp

°C
Wind Pressure Rain
since 9am
mm
Weather Cloud Vis
km
Sea
Height
m
Swell
Dir
 
Speed
knots
Gust
knots
hPa Trend Height
m
Period
s
Dir
24/11:48pm 13.6 SW 15 25 1009.2 - 0.2 - - - - - - -
24/11:30pm 13.8 SW 13 20 1009.1 - 0.2 - - - - - - -
24/11:00pm 13.6 WNW 10 12 1008.4 - 0.2 - - - - - - -
24/10:30pm 13.3 N 10 16 1008.5 - 0.2 - - - - - - -
24/10:00pm 13.3 N 14 21 1008.8 - 0.2 - - - - - - -
24/09:30pm 13.3 N 21 28 1008.8 - 0.2 - - - - - - -
24/09:00pm 13.0 N 27 33 1008.7 - 0.2 - - - - - - -
24/08:30pm 13.4 N 30 39 1008.3 - 0.2 - - - - - - -
24/08:00pm 12.9 NNE 29 38 1007.9 - 0.2 - - - - - - -
24/07:31pm 13.0 NNE 31 41 1008.1 - 0.2 - - - - - - -
24/07:30pm 13.1 NNE 32 41 1008.1 - 0.2 - - - - - - -
24/07:00pm 13.0 NNE 31 39 1009.2 - 0.2 - - - - - - -
24/06:30pm 12.9 NNE 30 38 1009.8 - 0.2 - - - - - - -
24/06:00pm 12.8 NNE 28 36 1010.0 - 0.0 - - - - - - -
24/05:37pm 12.7 N 21 32 1010.9 - 0.0 - - - - - - -
24/05:30pm 12.7 NNE 23 32 1010.8 - 0.0 - - - - - - -
24/05:01pm 12.6 NNE 26 36 1010.8 - 0.0 - - - - - - -
24/05:00pm 12.6 NNE 27 36 1010.9 - 0.0 - - - - - - -
24/04:30pm 12.5 NNE 27 36 1010.8 - 0.0 - - - - - - -
24/04:00pm 12.3 NNE 29 36 1011.6 - 0.0 - - - - - - -
24/03:30pm 12.2 NNE 31 40 1011.9 - 0.0 - - - - - - -
24/03:00pm 12.0 NNE 30 39 1012.5 - 0.0 - - - - - - -
24/02:30pm 11.9 NNE 30 40 1013.0 - 0.0 - - - - - - -
24/02:00pm 11.6 NNE 28 36 1013.7 - 0.0 - - - - - - -
24/01:44pm 11.5 NNE 30 40 1014.1 - 0.0 - - - - - - -
24/01:30pm 11.5 NNE 29 37 1014.4 - 0.0 - - - - - - -
24/01:00pm 11.3 NNE 25 34 1015.2 - 0.0 - - - - - - -
24/12:30pm 11.3 NNE 28 36 1015.4 - 0.0 - - - - - - -
24/12:05pm 11.4 NNE 25 35 1016.1 - 0.0 - - - - - - -
24/12:00pm 11.4 NNE 26 36 1016.0 - 0.0 - - - - - - -
24/11:30am 11.1 NNE 27 35 1017.0 - 0.0 - - - - - - -
24/11:15am 11.1 NNE 27 37 1017.1 - 0.0 - - - - - - -
24/11:00am 11.2 NNE 28 36 1017.1 - 0.0 - - - - - - -
24/10:30am 11.0 NNE 26 38 1017.5 - 0.0 - - - - - - -
24/10:00am 10.9 NNE 29 44 1017.7 - 0.0 - - - - - - -
24/09:30am 11.0 NNE 30 42 1018.3 - 0.0 - - - - - - -
24/09:00am 10.8 NNE 30 41 1018.8 - 0.0 - - - - - - -
24/08:30am 10.6 NNE 30 43 1019.0 - 0.0 - - - - - - -
24/08:00am 10.6 NNE 28 42 1019.6 - 0.0 - - - - - - -
24/07:30am 10.1 NNE 26 38 1020.0 - 0.0 - - - - - - -
24/07:11am 10.1 NNE 27 38 1020.1 - 0.0 - - - - - - -
24/07:00am 10.0 NNE 27 37 1020.2 - 0.0 - - - - - - -
24/06:32am 9.7 NNE 28 38 1020.2 - 0.0 - - - - - - -
24/06:30am 9.7 NNE 28 37 1020.2 - 0.0 - - - - - - -
24/06:07am 9.8 NNE 25 36 1020.6 - 0.0 - - - - - - -
24/06:00am 9.9 NNE 27 36 1020.6 - 0.0 - - - - - - -
24/05:42am 9.9 NNE 24 36 1020.6 - 0.0 - - - - - - -
24/05:30am 9.7 NNE 25 35 1020.5 - 0.0 - - - - - - -
24/05:00am 9.7 NNE 25 36 1021.0 - 0.0 - - - - - - -
24/04:36am 9.7 NNE 25 36 1021.3 - 0.0 - - - - - - -
24/04:30am 9.7 NNE 24 32 1021.4 - 0.0 - - - - - - -
24/04:00am 9.6 NNE 22 32 1021.9 - 0.0 - - - - - - -
24/03:48am 9.4 NNE 24 34 1022.1 - 0.0 - - - - - - -
24/03:30am 9.3 NNE 26 34 1022.2 - 0.0 - - - - - - -
24/03:03am 9.2 NNE 25 36 1022.3 - 0.0 - - - - - - -
24/03:00am 9.2 NNE 26 36 1022.3 - 0.0 - - - - - - -
24/02:30am 9.1 NNE 24 37 1023.0 - 0.0 - - - - - - -
24/02:19am 9.3 NNE 22 32 1023.2 - 0.0 - - - - - - -
24/02:00am 9.0 NNE 21 29 1023.7 - 0.0 - - - - - - -
24/01:30am 9.3 NNE 21 33 1023.7 - 0.0 - - - - - - -
24/01:08am 9.1 NNE 20 30 1024.0 - 0.0 - - - - - - -
24/01:00am 9.2 NNE 21 29 1024.2 - 0.0 - - - - - - -
24/12:30am 9.0 NNE 15 27 1024.6 - 0.0 - - - - - - -
24/12:04am 9.0 NNE 20 30 1024.9 - 0.0 - - - - - - -
24/12:00am 8.8 NNE 21 30 1024.9 - 0.0 - - - - - - -
 
Date/Time
EDT
Temp

°C
Wind Pressure Rain
since 9am
mm
Weather Cloud Vis
km
Sea
Height
m
Swell
Dir
 
Speed
knots
Gust
knots
hPa Trend Height
m
Period
s
Dir
23/11:30pm 8.8 NNE 17 29 1025.1 - 0.0 - - - - - - -
23/11:00pm 8.9 NNE 15 26 1024.7 - 0.0 - - - - - - -
23/10:47pm 9.1 NNE 15 27 1024.8 - 0.0 - - - - - - -
23/10:30pm 9.0 NE 13 25 1024.9 - 0.0 - - - - - - -
23/10:00pm 8.9 NNE 13 23 1025.3 - 0.0 - - - - - - -
23/09:30pm 8.9 NNE 10 18 1025.8 - 0.0 - - - - - - -
23/09:00pm 9.0 NE 11 19 1025.9 - 0.0 - - - - - - -
23/08:30pm 9.0 NNE 5 13 1026.1 - 0.0 - - - - - - -
23/08:00pm 8.9 NNE 7 15 1026.0 - 0.0 - - - - - - -
23/07:30pm 8.9 NE 9 16 1026.3 - 0.0 - - - - - - -
23/07:00pm 9.1 NE 10 14 1026.0 - 0.0 - - - - - - -
23/06:30pm 9.5 NW 5 11 1026.1 - 0.0 - - - - - - -
23/06:00pm 9.5 E 7 14 1026.3 - 0.0 - - - - - - -
23/05:30pm 9.8 E 5 16 1026.0 - 0.0 - - - - - - -
23/05:00pm 10.4 E 5 14 1025.9 - 0.0 - - - - - - -
23/04:30pm 10.2 E 8 13 1025.7 - 0.0 - - - - - - -
23/04:00pm 10.2 E 4 11 1025.7 - 0.0 - - - - - - -
23/03:30pm 11.3 E 3 10 1025.6 - 0.0 - - - - - - -
23/03:00pm 11.6 E 5 10 1025.5 - 0.0 - - - - - - -
23/02:30pm 11.9 ESE 5 11 1025.8 - 0.0 - - - - - - -
23/02:00pm 11.1 ESE 6 11 1025.9 - 0.0 - - - - - - -
23/01:30pm 12.0 ESE 5 11 1026.0 - 0.0 - - - - - - -
23/01:00pm 11.6 E 6 12 1025.9 - 0.0 - - - - - - -
23/12:30pm 11.4 SE 5 10 1026.3 - 0.0 - - - - - - -
23/12:00pm 10.8 SE 5 9 1026.6 - 0.0 - - - - - - -
23/11:30am 10.9 SSE 5 11 1026.6 - 0.0 - - - - - - -
23/11:00am 11.1 SSE 5 9 1026.6 - 0.0 - - - - - - -
23/10:30am 10.1 SSE 6 10 1026.5 - 0.0 - - - - - - -
23/10:00am 10.1 SSE 9 13 1026.4 - 0.0 - - - - - - -
23/09:30am 10.0 S 6 12 1026.3 - 0.0 - - - - - - -
23/09:00am 9.6 S 8 14 1025.8 - 0.0 - - - - - - -
23/08:30am 9.2 S 8 16 1025.6 - 0.0 - - - - - - -
23/08:00am 8.9 S 8 13 1025.3 - 0.0 - - - - - - -
23/07:30am 9.0 S 8 13 1024.7 - 0.0 - - - - - - -
23/07:00am 8.8 S 9 14 1024.2 - 0.0 - - - - - - -
23/06:30am 8.2 S 11 17 1023.7 - 0.0 - - - - - - -
23/06:00am 8.5 SSW 13 19 1023.3 - 0.0 - - - - - - -
23/05:30am 8.5 SSW 13 20 1022.7 - 0.0 - - - - - - -
23/05:00am 8.8 SSW 17 24 1022.1 - 0.0 - - - - - - -
23/04:30am 9.1 SSW 15 22 1021.8 - 0.0 - - - - - - -
23/04:00am 8.9 SSW 16 24 1021.6 - 0.0 - - - - - - -
23/03:30am 8.8 SSW 16 25 1021.5 - 0.0 - - - - - - -
23/03:00am 9.3 SSW 16 23 1021.6 - 0.0 - - - - - - -
23/02:52am 9.3 SSW 18 28 1021.6 - 0.0 - - - - - - -
23/02:30am 9.4 SSW 18 27 1021.2 - 0.0 - - - - - - -
23/02:06am 9.2 SSW 18 31 1021.1 - 0.0 - - - - - - -
23/02:00am 9.4 SSW 17 25 1021.2 - 0.0 - - - - - - -
23/01:30am 9.2 SSW 18 28 1021.0 - 0.0 - - - - - - -
23/01:00am 9.5 SSW 19 29 1020.9 - 0.0 - - - - - - -
23/12:32am 9.8 SSW 19 29 1020.6 - 0.0 - - - - - - -
23/12:30am 9.8 SSW 20 29 1020.6 - 0.0 - - - - - - -
23/12:09am 10.5 SSW 21 32 1019.9 - 0.0 - - - - - - -
23/12:00am 10.8 SW 23 31 1019.9 - 0.0 - - - - - - -

Other Formats:

Comma delimited format used in spreadsheet applications
http://www.bom.gov.au/fwo/IDT60701/IDT60701.95986.axf

JavaScript Object Notation format (JSON) in row-major order
http://www.bom.gov.au/fwo/IDT60701/IDT60701.95986.json